Essex, Massachusetts
Current Conditions -  °F | °C
As of 3:53 PM on Thursday 18 Dec 2014 (Local Time) from KBVY Reporting Station
Overcast Overcast  
Wind Chill: 33°   Ceiling: 3600
Heat Index: 41°   Visibility: 10mi
Dew Point: 28°   Wind: 14mph
Humidity: 60%   Direction: 280°W
Pressure: 29.78"   Gusts: 22mph
Location:  42.63°N, 70.78°W
Report Text: KBVY 182053Z 28012G19KT 10SM OVC036 05/M02 A2978 RMK AO2 SLP082 T00501022 53015
Loading
Personal Weather Stations






























Interactive Weather Map New forecast layout! Learn more

10-Day Weather Forecast

Advertisements
Track Severe Weather on mobile